createdAt,value
2023-04-29T00:01:12.098Z,9.98
2023-04-29T00:03:38.859Z,10.93
2023-04-29T00:06:05.762Z,11.38
2023-04-29T00:08:32.679Z,11.48
2023-04-29T00:10:59.154Z,12.07
2023-04-29T00:13:27.152Z,10.75
2023-04-29T00:15:54.193Z,9.90
2023-04-29T00:18:20.765Z,9.55
2023-04-29T00:20:47.428Z,8.82
2023-04-29T00:23:13.996Z,9.93
2023-04-29T00:25:40.485Z,11.98
2023-04-29T00:28:07.263Z,10.75
2023-04-29T00:30:34.672Z,9.02
2023-04-29T00:33:01.322Z,8.18
2023-04-29T00:35:27.953Z,7.68
2023-04-29T00:37:54.586Z,7.20
2023-04-29T00:40:21.294Z,6.60
2023-04-29T00:42:48.122Z,6.75
2023-04-29T00:45:15.066Z,6.45
2023-04-29T00:47:42.174Z,6.40
2023-04-29T00:50:09.517Z,6.03
2023-04-29T00:52:38.346Z,6.28
2023-04-29T00:57:34.329Z,5.20
2023-04-29T01:00:01.518Z,6.10
2023-04-29T01:02:28.898Z,6.15
2023-04-29T01:04:55.973Z,6.50
2023-04-29T01:07:42.438Z,7.30
2023-04-29T01:10:19.596Z,7.05
2023-04-29T01:12:49.558Z,6.70
2023-04-29T01:15:28.324Z,6.60
2023-04-29T01:18:19.516Z,6.55
2023-04-29T01:20:46.961Z,7.03
2023-04-29T01:27:14.234Z,6.57
2023-04-29T01:30:18.780Z,6.82
2023-04-29T01:33:11.096Z,6.28
2023-04-29T01:35:40.545Z,6.07
2023-04-29T01:38:10.080Z,6.63
2023-04-29T01:40:47.695Z,6.75
2023-04-29T01:43:16.041Z,6.57
2023-04-29T01:45:44.188Z,7.35
2023-04-29T01:48:11.548Z,7.82
2023-04-29T01:50:38.093Z,8.57
2023-04-29T01:53:04.727Z,9.57
2023-04-29T01:55:31.192Z,8.85
2023-04-29T01:57:57.821Z,9.00
2023-04-29T02:00:24.297Z,8.68
2023-04-29T02:02:50.977Z,9.63
2023-04-29T02:05:17.652Z,9.68
2023-04-29T02:07:44.979Z,9.18
2023-04-29T02:10:12.364Z,9.43
2023-04-29T02:12:39.188Z,9.45
2023-04-29T02:15:06.787Z,9.98
2023-04-29T02:17:34.627Z,9.55
2023-04-29T02:20:01.253Z,12.13
2023-04-29T02:22:30.244Z,11.57
2023-04-29T02:24:57.034Z,13.95
2023-04-29T02:27:23.795Z,13.77
2023-04-29T02:29:51.621Z,14.40
2023-04-29T02:32:20.854Z,15.18
2023-04-29T02:34:47.636Z,16.05
2023-04-29T02:37:14.188Z,17.75
2023-04-29T02:39:41.388Z,17.30
2023-04-29T02:42:08.054Z,16.25
2023-04-29T02:44:34.597Z,15.25
2023-04-29T02:47:01.641Z,15.82
2023-04-29T02:49:28.398Z,15.80
2023-04-29T02:51:54.889Z,17.30
2023-04-29T02:54:21.679Z,16.65
2023-04-29T02:56:48.411Z,15.20
2023-04-29T02:59:14.946Z,16.52
2023-04-29T03:01:41.583Z,14.60
2023-04-29T03:04:08.626Z,15.02
2023-04-29T03:06:35.801Z,13.75
2023-04-29T03:09:02.528Z,13.40
2023-04-29T03:11:29.047Z,13.38
2023-04-29T03:13:55.533Z,14.20
2023-04-29T03:16:22.188Z,13.80
2023-04-29T03:18:49.333Z,14.45
2023-04-29T03:21:16.608Z,14.65
2023-04-29T03:23:44.824Z,13.48
2023-04-29T03:26:11.764Z,12.27
2023-04-29T03:28:38.281Z,12.40
2023-04-29T03:31:05.116Z,11.73
2023-04-29T03:33:31.914Z,11.05
2023-04-29T03:35:58.489Z,12.32
2023-04-29T03:38:26.038Z,12.35
2023-04-29T03:40:52.494Z,13.57
2023-04-29T03:43:19.180Z,13.32
2023-04-29T03:45:45.986Z,14.13
2023-04-29T03:48:12.787Z,14.65
2023-04-29T03:50:39.414Z,13.43
2023-04-29T03:53:06.253Z,13.80
2023-04-29T03:55:32.687Z,12.68
2023-04-29T03:57:59.246Z,11.60
2023-04-29T04:00:26.694Z,11.05
2023-04-29T04:02:53.608Z,10.55
2023-04-29T04:05:21.535Z,8.55
2023-04-29T04:07:48.329Z,8.60
2023-04-29T04:10:15.032Z,8.90
2023-04-29T04:12:43.936Z,8.02
2023-04-29T04:15:10.932Z,8.82
2023-04-29T04:17:37.775Z,8.60
2023-04-29T04:20:05.422Z,9.45
2023-04-29T04:22:32.201Z,8.43
2023-04-29T04:24:59.036Z,8.85
2023-04-29T04:27:25.644Z,9.18
2023-04-29T04:29:55.773Z,9.10
2023-04-29T04:32:23.940Z,8.88
2023-04-29T04:34:50.753Z,8.70
2023-04-29T04:37:17.950Z,8.27
2023-04-29T04:39:44.556Z,8.52
2023-04-29T04:42:11.205Z,7.55
2023-04-29T04:44:38.473Z,7.63
2023-04-29T04:47:06.544Z,7.38
2023-04-29T04:49:33.086Z,7.80
2023-04-29T04:51:59.735Z,7.15
2023-04-29T04:54:26.439Z,6.72
2023-04-29T04:56:53.051Z,6.82
2023-04-29T04:59:20.098Z,7.43
2023-04-29T05:01:46.628Z,7.65
2023-04-29T05:04:13.642Z,7.28
2023-04-29T05:06:40.473Z,6.53
2023-04-29T05:09:07.226Z,7.13
2023-04-29T05:11:34.732Z,7.63
2023-04-29T05:14:01.296Z,7.75
2023-04-29T05:16:27.954Z,6.90
2023-04-29T05:18:54.838Z,7.53
2023-04-29T05:21:21.253Z,8.93
2023-04-29T05:23:47.814Z,9.20
2023-04-29T05:26:14.255Z,9.68
2023-04-29T05:28:41.203Z,11.50
2023-04-29T05:31:08.061Z,13.30
2023-04-29T05:33:34.913Z,17.55
2023-04-29T05:36:01.836Z,18.02
2023-04-29T05:38:29.188Z,16.75
2023-04-29T05:40:56.818Z,15.90
2023-04-29T05:43:23.686Z,16.67
2023-04-29T05:45:50.588Z,16.20
2023-04-29T05:48:17.402Z,13.90
2023-04-29T05:50:44.275Z,11.60
2023-04-29T05:53:11.535Z,9.45
2023-04-29T05:55:38.205Z,8.73
2023-04-29T05:58:04.767Z,7.65
2023-04-29T06:00:31.887Z,6.45
2023-04-29T06:02:59.263Z,5.97
2023-04-29T06:05:27.903Z,6.00
2023-04-29T06:07:54.882Z,5.63
2023-04-29T06:10:21.452Z,4.68
2023-04-29T06:12:50.889Z,4.72
2023-04-29T06:15:18.021Z,4.93
2023-04-29T06:17:45.163Z,5.13
2023-04-29T06:20:12.233Z,4.93
2023-04-29T06:22:39.001Z,5.00
2023-04-29T06:25:06.071Z,5.72
2023-04-29T06:27:33.274Z,5.05
2023-04-29T06:30:00.041Z,4.75
2023-04-29T06:32:26.613Z,4.70
2023-04-29T06:34:53.183Z,4.57
2023-04-29T06:37:19.689Z,4.65
2023-04-29T06:39:46.478Z,4.60
2023-04-29T06:42:13.405Z,4.13
2023-04-29T06:44:41.589Z,4.80
2023-04-29T06:47:08.272Z,4.35
2023-04-29T06:49:35.156Z,4.22
2023-04-29T06:52:02.355Z,4.82
2023-04-29T06:54:29.492Z,4.50
2023-04-29T06:56:56.282Z,4.30
2023-04-29T06:59:23.396Z,4.20
2023-04-29T07:01:52.330Z,4.38
2023-04-29T07:04:18.996Z,4.03
2023-04-29T07:06:47.379Z,4.32
2023-04-29T07:09:14.745Z,4.35
2023-04-29T07:11:41.908Z,3.85
2023-04-29T07:14:08.726Z,4.28
2023-04-29T07:16:35.548Z,4.13
2023-04-29T07:19:02.151Z,4.80
2023-04-29T07:21:30.803Z,4.55
2023-04-29T07:23:59.274Z,4.78
2023-04-29T07:26:26.015Z,4.35
2023-04-29T07:28:52.637Z,4.45
2023-04-29T07:31:19.640Z,4.57
2023-04-29T07:33:48.957Z,4.05
2023-04-29T07:36:15.553Z,4.10
2023-04-29T07:38:42.053Z,4.20
2023-04-29T07:41:08.607Z,4.22
2023-04-29T07:43:35.222Z,4.45
2023-04-29T07:46:01.761Z,4.53
2023-04-29T07:48:28.739Z,5.13
2023-04-29T07:50:55.490Z,4.82
2023-04-29T07:53:22.208Z,5.55
2023-04-29T07:55:48.772Z,6.25
2023-04-29T07:58:15.361Z,6.00
2023-04-29T08:00:41.815Z,6.35
2023-04-29T08:03:08.715Z,5.70
2023-04-29T08:05:36.560Z,7.22
2023-04-29T08:08:03.400Z,10.63
2023-04-29T08:10:30.150Z,11.05
2023-04-29T08:12:56.772Z,11.63
2023-04-29T08:15:23.618Z,11.45
2023-04-29T08:17:50.447Z,10.93
2023-04-29T08:20:17.064Z,11.05
2023-04-29T08:22:43.587Z,10.65
2023-04-29T08:25:10.821Z,11.30
2023-04-29T08:27:37.644Z,11.70
2023-04-29T08:30:04.697Z,9.38
2023-04-29T08:32:31.361Z,11.10
2023-04-29T08:34:57.803Z,8.57
2023-04-29T08:37:24.312Z,8.40
2023-04-29T08:39:50.896Z,7.78
2023-04-29T08:42:29.085Z,6.55
2023-04-29T08:44:58.060Z,6.25
2023-04-29T08:47:24.713Z,6.65
2023-04-29T08:49:51.323Z,6.47
2023-04-29T08:52:17.963Z,5.80
2023-04-29T08:54:44.792Z,5.93
2023-04-29T08:57:12.764Z,5.85
2023-04-29T08:59:39.299Z,6.43
2023-04-29T09:02:13.814Z,6.13
2023-04-29T09:04:56.526Z,6.80
2023-04-29T09:07:24.310Z,5.40
2023-04-29T09:09:52.944Z,5.90
2023-04-29T09:12:19.526Z,5.50
2023-04-29T09:14:46.563Z,5.47
2023-04-29T09:17:13.364Z,5.60
2023-04-29T09:19:39.963Z,5.50
2023-04-29T09:22:07.784Z,6.05
2023-04-29T09:24:34.473Z,5.60
2023-04-29T09:27:03.449Z,5.72
2023-04-29T09:29:33.140Z,6.38
2023-04-29T09:31:59.867Z,6.35
2023-04-29T09:34:39.928Z,7.32
2023-04-29T09:37:24.994Z,5.50
2023-04-29T09:39:51.612Z,5.45
2023-04-29T09:42:18.251Z,5.57
2023-04-29T09:44:45.444Z,5.35
2023-04-29T09:47:13.281Z,5.43
2023-04-29T09:49:46.115Z,5.50
2023-04-29T09:52:15.380Z,6.05
2023-04-29T09:54:43.701Z,6.10
2023-04-29T09:57:11.741Z,5.53
2023-04-29T09:59:40.270Z,6.10
2023-04-29T10:02:18.979Z,5.82
2023-04-29T10:04:47.962Z,6.10
2023-04-29T10:07:18.348Z,5.70
2023-04-29T10:09:48.842Z,6.15
2023-04-29T10:12:17.882Z,6.03
2023-04-29T10:17:25.915Z,6.00
2023-04-29T10:20:06.158Z,5.65
2023-04-29T10:22:51.363Z,5.85
2023-04-29T10:25:23.676Z,4.82
2023-04-29T10:27:53.794Z,5.40
2023-04-29T10:30:22.032Z,5.10
2023-04-29T10:32:52.032Z,4.30
2023-04-29T10:35:23.102Z,4.38
2023-04-29T10:37:50.269Z,4.55
2023-04-29T10:40:31.052Z,4.05
2023-04-29T10:42:57.649Z,4.30
2023-04-29T10:45:27.031Z,3.85
2023-04-29T10:48:24.154Z,4.35
2023-04-29T10:50:51.013Z,4.65
2023-04-29T10:53:20.054Z,4.88
2023-04-29T10:55:55.270Z,4.18
2023-04-29T10:58:45.056Z,4.97
2023-04-29T11:01:16.954Z,4.40
2023-04-29T11:03:59.434Z,4.70
2023-04-29T11:06:40.606Z,5.38
2023-04-29T11:09:14.699Z,5.68
2023-04-29T11:11:44.424Z,6.07
2023-04-29T11:14:12.888Z,5.93
2023-04-29T11:16:49.723Z,6.40
2023-04-29T11:19:17.916Z,6.15
2023-04-29T11:21:47.221Z,6.57
2023-04-29T11:24:16.209Z,6.53
2023-04-29T11:26:44.209Z,6.50
2023-04-29T11:29:11.019Z,6.97
2023-04-29T11:31:39.344Z,6.78
2023-04-29T11:34:07.535Z,7.07
2023-04-29T11:36:35.029Z,6.75
2023-04-29T11:39:03.779Z,7.05
2023-04-29T11:43:59.927Z,7.03
2023-04-29T11:46:30.345Z,7.55
2023-04-29T11:48:58.968Z,7.05
2023-04-29T11:51:25.858Z,7.97
2023-04-29T11:53:52.867Z,6.35
2023-04-29T11:56:25.448Z,7.00
2023-04-29T11:58:56.844Z,6.30
2023-04-29T12:01:23.918Z,7.35
2023-04-29T12:03:51.212Z,6.82
2023-04-29T12:06:18.191Z,7.07
2023-04-29T12:08:47.064Z,8.60
2023-04-29T12:11:14.135Z,7.57
2023-04-29T12:13:41.035Z,8.18
2023-04-29T12:16:07.938Z,8.05
2023-04-29T12:18:36.397Z,8.10
2023-04-29T12:21:03.071Z,7.90
2023-04-29T12:23:29.932Z,6.55
2023-04-29T12:25:59.355Z,6.53
2023-04-29T12:28:27.809Z,6.35
2023-04-29T12:30:55.030Z,6.85
2023-04-29T12:33:26.833Z,7.03
2023-04-29T12:35:57.921Z,7.00
2023-04-29T12:38:29.886Z,6.43
2023-04-29T12:40:59.279Z,6.00
2023-04-29T12:43:28.188Z,6.13
2023-04-29T12:46:00.584Z,5.72
2023-04-29T12:48:34.148Z,5.60
2023-04-29T12:51:02.194Z,6.50
2023-04-29T12:53:32.048Z,6.00
2023-04-29T12:55:58.698Z,5.80
2023-04-29T12:58:32.963Z,6.10
2023-04-29T13:01:00.099Z,5.57
2023-04-29T13:03:27.421Z,5.75
2023-04-29T13:05:54.794Z,5.75
2023-04-29T13:08:21.666Z,5.60
2023-04-29T13:10:48.395Z,5.35
2023-04-29T13:13:14.907Z,6.00
2023-04-29T13:15:41.425Z,5.70
2023-04-29T13:18:08.159Z,6.00
2023-04-29T13:20:41.140Z,5.30
2023-04-29T13:23:09.339Z,5.18
2023-04-29T13:25:36.087Z,5.65
2023-04-29T13:28:03.569Z,5.78
2023-04-29T13:30:30.060Z,5.90
2023-04-29T13:33:03.969Z,5.68
2023-04-29T13:35:41.683Z,5.50
2023-04-29T13:38:09.092Z,5.65
2023-04-29T13:40:39.274Z,5.70
2023-04-29T13:43:09.856Z,5.53
2023-04-29T13:45:39.840Z,5.55
2023-04-29T13:48:25.908Z,5.93
2023-04-29T13:51:41.188Z,6.15
2023-04-29T13:59:28.763Z,6.30
2023-04-29T14:04:00.416Z,6.20
2023-04-29T14:06:28.413Z,6.07
2023-04-29T14:08:55.487Z,5.90
2023-04-29T14:11:22.310Z,6.10
2023-04-29T14:13:49.114Z,6.35
2023-04-29T14:16:16.976Z,6.47
2023-04-29T14:18:43.871Z,5.82
2023-04-29T14:21:11.861Z,5.57
2023-04-29T14:23:38.407Z,6.40
2023-04-29T14:26:17.137Z,5.50
2023-04-29T14:28:57.231Z,5.38
2023-04-29T14:31:31.881Z,4.68
2023-04-29T14:33:59.266Z,4.80
2023-04-29T14:36:26.789Z,4.82
2023-04-29T14:38:53.457Z,4.90
2023-04-29T14:41:22.107Z,4.80
2023-04-29T14:43:49.083Z,4.88
2023-04-29T14:46:17.044Z,4.55
2023-04-29T14:48:44.136Z,4.55
2023-04-29T14:51:10.923Z,4.50
2023-04-29T14:53:37.508Z,4.60
2023-04-29T14:56:04.091Z,4.75
2023-04-29T14:58:31.099Z,4.80
2023-04-29T15:00:57.631Z,4.88
2023-04-29T15:03:24.241Z,4.53
2023-04-29T15:05:51.726Z,4.47
2023-04-29T15:08:19.401Z,4.60
2023-04-29T15:10:48.011Z,4.85
2023-04-29T15:13:15.157Z,4.75
2023-04-29T15:15:41.991Z,5.03
2023-04-29T15:18:09.262Z,4.90
2023-04-29T15:20:36.971Z,4.80
2023-04-29T15:23:04.820Z,5.07
2023-04-29T15:25:33.567Z,5.13
2023-04-29T15:28:01.131Z,4.63
2023-04-29T15:30:27.878Z,4.97
2023-04-29T15:32:55.292Z,4.75
2023-04-29T15:35:22.095Z,4.68
2023-04-29T15:37:49.187Z,4.95
2023-04-29T15:40:17.016Z,5.20
2023-04-29T15:42:44.037Z,5.07
2023-04-29T15:45:11.101Z,4.72
2023-04-29T15:47:37.689Z,5.10
2023-04-29T15:50:04.694Z,4.43
2023-04-29T15:52:31.236Z,4.35
2023-04-29T15:54:58.453Z,4.60
2023-04-29T15:57:25.995Z,4.95
2023-04-29T15:59:52.788Z,4.20
2023-04-29T16:02:20.480Z,4.53
2023-04-29T16:04:47.038Z,4.43
2023-04-29T16:07:13.705Z,4.05
2023-04-29T16:09:40.319Z,3.97
2023-04-29T16:12:08.073Z,4.18
2023-04-29T16:14:34.526Z,4.50
2023-04-29T16:17:01.300Z,4.50
2023-04-29T16:19:28.227Z,4.07
2023-04-29T16:21:55.608Z,5.38
2023-04-29T16:24:22.220Z,5.82
2023-04-29T16:26:50.724Z,10.10
2023-04-29T16:29:18.400Z,21.30
2023-04-29T16:31:45.223Z,14.48
2023-04-29T16:34:12.692Z,9.23
2023-04-29T16:36:39.360Z,18.10
2023-04-29T16:39:06.481Z,15.23
2023-04-29T16:41:33.465Z,9.80
2023-04-29T16:44:00.183Z,11.20
2023-04-29T16:46:27.894Z,13.63
2023-04-29T16:48:56.916Z,15.82
2023-04-29T16:51:27.478Z,10.18
2023-04-29T16:53:54.250Z,6.00
2023-04-29T16:56:22.665Z,6.00
2023-04-29T16:58:49.914Z,5.60
2023-04-29T17:01:19.615Z,5.55
2023-04-29T17:03:48.138Z,6.00
2023-04-29T17:06:16.114Z,6.28
2023-04-29T17:08:47.515Z,8.15
2023-04-29T17:11:15.913Z,7.55
2023-04-29T17:13:45.084Z,7.80
2023-04-29T17:16:12.160Z,6.68
2023-04-29T17:18:38.711Z,11.18
2023-04-29T17:21:05.494Z,25.52
2023-04-29T17:23:32.290Z,7.78
2023-04-29T17:25:58.901Z,7.35
2023-04-29T17:28:25.479Z,7.10
2023-04-29T17:30:55.684Z,6.10
2023-04-29T17:33:22.411Z,8.18
2023-04-29T17:35:48.896Z,7.63
2023-04-29T17:38:15.766Z,6.80
2023-04-29T17:40:42.273Z,6.72
2023-04-29T17:43:08.760Z,7.18
2023-04-29T17:45:39.660Z,6.63
2023-04-29T17:48:06.646Z,5.63
2023-04-29T17:50:33.196Z,6.50
2023-04-29T17:52:59.726Z,6.53
2023-04-29T17:55:26.175Z,6.10
2023-04-29T17:57:55.149Z,5.65
2023-04-29T18:00:21.939Z,5.82
2023-04-29T18:02:48.576Z,6.35
2023-04-29T18:05:15.149Z,5.57
2023-04-29T18:07:41.694Z,5.35
2023-04-29T18:10:09.148Z,6.10
2023-04-29T18:12:35.672Z,6.22
2023-04-29T18:15:05.957Z,5.82
2023-04-29T18:17:34.073Z,5.97
2023-04-29T18:20:00.679Z,7.13
2023-04-29T18:22:28.751Z,6.80
2023-04-29T18:24:56.665Z,8.63
2023-04-29T18:27:24.510Z,12.85
2023-04-29T18:29:51.523Z,9.73
2023-04-29T18:32:18.556Z,9.25
2023-04-29T18:34:45.038Z,8.00
2023-04-29T18:37:11.849Z,6.72
2023-04-29T18:39:38.576Z,7.00
2023-04-29T18:42:06.392Z,5.63
2023-04-29T18:44:34.348Z,6.40
2023-04-29T18:47:01.152Z,6.53
2023-04-29T18:49:27.794Z,6.05
2023-04-29T18:51:54.599Z,6.40
2023-04-29T18:54:21.159Z,6.30
2023-04-29T18:56:51.205Z,6.90
2023-04-29T18:59:21.438Z,6.32
2023-04-29T19:01:48.793Z,6.55
2023-04-29T19:04:15.956Z,6.85
2023-04-29T19:06:43.018Z,6.57
2023-04-29T19:09:11.317Z,6.57
2023-04-29T19:11:38.088Z,6.35
2023-04-29T19:14:05.050Z,6.30
2023-04-29T19:16:31.575Z,6.15
2023-04-29T19:18:58.111Z,5.75
2023-04-29T19:21:25.125Z,6.20
2023-04-29T19:23:52.425Z,6.47
2023-04-29T19:26:19.393Z,6.13
2023-04-29T19:28:46.208Z,6.10
2023-04-29T19:31:13.062Z,6.15
2023-04-29T19:33:39.641Z,6.07
2023-04-29T19:36:06.233Z,5.85
2023-04-29T19:38:34.155Z,6.10
2023-04-29T19:41:25.721Z,5.95
2023-04-29T19:43:52.528Z,6.32
2023-04-29T19:46:19.202Z,6.13
2023-04-29T19:48:45.701Z,6.75
2023-04-29T19:51:12.252Z,6.47
2023-04-29T19:53:38.853Z,6.20
2023-04-29T19:56:05.917Z,5.90
2023-04-29T19:58:33.150Z,6.00
2023-04-29T20:00:59.837Z,5.85
2023-04-29T20:03:26.960Z,5.90
2023-04-29T20:05:54.701Z,6.47
2023-04-29T20:08:21.684Z,6.35
2023-04-29T20:10:48.427Z,5.97
2023-04-29T20:13:15.891Z,5.68
2023-04-29T20:15:42.645Z,5.88
2023-04-29T20:18:09.701Z,5.65
2023-04-29T20:20:36.234Z,6.03
2023-04-29T20:23:03.367Z,5.90
2023-04-29T20:25:30.055Z,5.88
2023-04-29T20:27:59.530Z,5.55
2023-04-29T20:30:26.735Z,5.85
2023-04-29T20:32:53.455Z,5.63
2023-04-29T20:35:21.073Z,5.45
2023-04-29T20:37:47.683Z,5.78
2023-04-29T20:40:15.707Z,5.57
2023-04-29T20:42:42.585Z,5.70
2023-04-29T20:45:09.753Z,6.07
2023-04-29T20:47:36.291Z,6.40
2023-04-29T20:50:04.544Z,5.95
2023-04-29T20:52:31.295Z,5.57
2023-04-29T20:54:58.722Z,6.03
2023-04-29T20:57:25.300Z,6.18
2023-04-29T20:59:52.073Z,5.50
2023-04-29T21:02:18.882Z,6.20
2023-04-29T21:04:46.170Z,5.97
2023-04-29T21:07:12.983Z,6.03
2023-04-29T21:09:39.557Z,6.07
2023-04-29T21:12:06.795Z,5.40
2023-04-29T21:14:33.543Z,5.82
2023-04-29T21:17:00.066Z,5.18
2023-04-29T21:19:27.568Z,5.90
2023-04-29T21:21:54.307Z,5.18
2023-04-29T21:24:20.839Z,5.50
2023-04-29T21:26:47.464Z,5.63
2023-04-29T21:29:13.974Z,4.85
2023-04-29T21:31:40.580Z,5.55
2023-04-29T21:34:07.265Z,5.85
2023-04-29T21:36:34.385Z,5.50
2023-04-29T21:39:01.190Z,6.03
2023-04-29T21:41:30.874Z,5.65
2023-04-29T21:43:58.857Z,5.22
2023-04-29T21:46:27.872Z,5.50
2023-04-29T21:48:56.591Z,5.55
2023-04-29T21:51:23.388Z,5.30
2023-04-29T21:53:51.324Z,4.93
2023-04-29T21:56:18.301Z,5.53
2023-04-29T21:59:15.839Z,5.47
2023-04-29T22:01:46.169Z,5.63
2023-04-29T22:04:12.819Z,5.40
2023-04-29T22:06:39.652Z,5.75
2023-04-29T22:09:43.158Z,5.60
2023-04-29T22:12:09.882Z,5.22
2023-04-29T22:14:36.398Z,5.38
2023-04-29T22:17:02.953Z,5.95
2023-04-29T22:19:32.611Z,4.78
2023-04-29T22:21:59.350Z,5.30
2023-04-29T22:24:25.892Z,5.50
2023-04-29T22:26:52.498Z,4.53
2023-04-29T22:29:20.079Z,5.03
2023-04-29T22:31:46.676Z,4.70
2023-04-29T22:34:13.227Z,4.82
2023-04-29T22:36:40.077Z,4.75
2023-04-29T22:39:07.407Z,4.38
2023-04-29T22:41:33.937Z,4.80
2023-04-29T22:44:00.470Z,4.63
2023-04-29T22:46:27.471Z,4.88
2023-04-29T22:48:54.249Z,4.75
2023-04-29T22:51:20.805Z,4.65
2023-04-29T22:53:47.228Z,5.05
2023-04-29T22:56:13.828Z,4.50
2023-04-29T22:58:41.212Z,4.50
2023-04-29T23:01:09.324Z,4.80
2023-04-29T23:03:38.666Z,4.72
2023-04-29T23:06:05.351Z,5.05
2023-04-29T23:08:32.239Z,4.93
2023-04-29T23:10:58.747Z,4.38
2023-04-29T23:13:25.489Z,4.65
2023-04-29T23:15:55.903Z,4.90
2023-04-29T23:18:22.419Z,4.28
2023-04-29T23:20:48.994Z,4.38
2023-04-29T23:23:15.498Z,4.35
2023-04-29T23:25:42.456Z,4.75
2023-04-29T23:28:09.254Z,4.90
2023-04-29T23:30:35.831Z,5.00
2023-04-29T23:33:02.456Z,4.55
2023-04-29T23:35:29.074Z,5.03
2023-04-29T23:37:55.638Z,4.35
2023-04-29T23:40:22.380Z,4.78
2023-04-29T23:42:49.211Z,4.72
2023-04-29T23:45:16.339Z,4.10
2023-04-29T23:47:43.620Z,4.70
2023-04-29T23:50:10.687Z,4.47
2023-04-29T23:52:37.511Z,4.80
2023-04-29T23:55:04.413Z,3.95
2023-04-29T23:57:31.085Z,3.90
2023-04-29T23:59:57.662Z,3.80
